Time;durP1;ratioP1;P1;durP2;ratioP2;P2;SDS_P1;SDS_P2;PMS_P1;PMS_P2;Temp;Humidity;BMP_temperature;BMP_pressure;BME280_temperature;BME280_humidity;BME280_pressure;Samples;Min_cycle;Max_cycle;Signal;HPM_P1;HPM_P2
2023/02/14 00:01:32;;;;;;;61.78;22.08;;;;;;;;;;5051766;28;20200;-66
2023/02/14 00:04:00;;;;;;;110.38;23.13;;;;;;;;;;5050731;28;20578;-66
2023/02/14 00:06:28;;;;;;;87.38;23.65;;;;;;;;;;5052591;28;20286;-66
2023/02/14 00:08:56;;;;;;;119.32;24.90;;;;;;;;;;5051680;28;20204;-66
2023/02/14 00:11:25;;;;;;;81.28;21.10;;;;;;;;;;5051953;28;20588;-66
2023/02/14 00:16:40;;;;;;;56.17;20.38;;;;;;;;;;5047487;28;20190;-66
2023/02/14 00:19:09;;;;;;;95.70;23.02;;;;;;;;;;5051284;28;20204;-66
2023/02/14 00:21:38;;;;;;;76.95;24.58;;;;;;;;;;5041789;28;20653;-66
2023/02/14 00:24:08;;;;;;;86.43;24.10;;;;;;;;;;5036267;28;20580;-66
2023/02/14 00:26:37;;;;;;;112.30;26.48;;;;;;;;;;5048917;28;20677;-67
2023/02/14 00:29:06;;;;;;;62.50;20.55;;;;;;;;;;5042664;28;20569;-66
2023/02/14 00:31:34;;;;;;;107.53;22.77;;;;;;;;;;5056170;28;20227;-66
2023/02/14 00:34:04;;;;;;;58.55;19.38;;;;;;;;;;5047052;28;20201;-66
2023/02/14 00:36:32;;;;;;;63.58;19.02;;;;;;;;;;5035998;28;20243;-66
2023/02/14 00:39:02;;;;;;;50.65;19.35;;;;;;;;;;5036141;28;20213;-66
2023/02/14 00:41:31;;;;;;;91.93;22.48;;;;;;;;;;5036293;28;20205;-66
2023/02/14 00:43:59;;;;;;;54.47;19.75;;;;;;;;;;5035802;28;20220;-67
2023/02/14 00:46:27;;;;;;;78.32;21.27;;;;;;;;;;5046104;28;20208;-66
2023/02/14 00:48:57;;;;;;;90.95;23.73;;;;;;;;;;5056031;28;20205;-66
2023/02/14 00:51:26;;;;;;;125.72;22.63;;;;;;;;;;5055617;28;20224;-65
2023/02/14 00:53:55;;;;;;;64.80;22.80;;;;;;;;;;5056002;28;20209;-64
2023/02/14 00:56:23;;;;;;;72.60;22.20;;;;;;;;;;5055356;28;20551;-65
2023/02/14 00:58:51;;;;;;;68.32;20.55;;;;;;;;;;5055973;28;20223;-65
2023/02/14 01:01:19;;;;;;;69.05;21.55;;;;;;;;;;5053509;28;20215;-65
2023/02/14 01:03:48;;;;;;;82.50;23.42;;;;;;;;;;5054569;28;20219;-66
2023/02/14 01:06:16;;;;;;;116.15;23.92;;;;;;;;;;5055298;28;20204;-66
2023/02/14 01:08:46;;;;;;;101.57;25.20;;;;;;;;;;5055221;28;20213;-66
2023/02/14 01:11:15;;;;;;;155.27;23.70;;;;;;;;;;5054903;28;20235;-65
2023/02/14 01:13:44;;;;;;;87.97;22.05;;;;;;;;;;5055737;28;20205;-65
2023/02/14 01:16:13;;;;;;;86.53;22.48;;;;;;;;;;5054954;28;20213;-66
2023/02/14 01:18:41;;;;;;;72.18;20.58;;;;;;;;;;5054208;28;20569;-66
2023/02/14 01:21:11;;;;;;;111.90;22.23;;;;;;;;;;5055176;28;20200;-66
2023/02/14 01:23:40;;;;;;;121.57;24.67;;;;;;;;;;5038422;28;20232;-66
2023/02/14 01:26:09;;;;;;;75.15;18.90;;;;;;;;;;5033866;28;20228;-66
2023/02/14 01:28:37;;;;;;;97.35;19.95;;;;;;;;;;5035153;28;20215;-66
2023/02/14 01:31:07;;;;;;;134.00;23.35;;;;;;;;;;5034891;28;20221;-66
2023/02/14 01:33:36;;;;;;;135.23;23.70;;;;;;;;;;5035006;28;20213;-65
2023/02/14 01:36:04;;;;;;;91.57;21.27;;;;;;;;;;5034939;28;20710;-65
2023/02/14 01:38:32;;;;;;;77.32;21.77;;;;;;;;;;5034690;28;20220;-65
2023/02/14 01:41:01;;;;;;;82.28;21.10;;;;;;;;;;5034951;28;20201;-65
2023/02/14 01:43:30;;;;;;;76.20;20.90;;;;;;;;;;5034319;28;20201;-65
2023/02/14 01:45:58;;;;;;;102.38;23.83;;;;;;;;;;5033938;28;20201;-66
2023/02/14 01:48:27;;;;;;;89.55;22.08;;;;;;;;;;5034466;28;20211;-66
2023/02/14 01:50:55;;;;;;;89.05;20.45;;;;;;;;;;5034828;28;20229;-65
2023/02/14 01:53:26;;;;;;;77.30;20.77;;;;;;;;;;5035022;28;20205;-65
2023/02/14 01:55:58;;;;;;;67.03;20.70;;;;;;;;;;5034698;28;20200;-65
2023/02/14 01:58:27;;;;;;;146.15;22.95;;;;;;;;;;5034876;28;20216;-65
2023/02/14 02:00:57;;;;;;;109.38;21.98;;;;;;;;;;5048000;28;20208;-66
2023/02/14 02:03:26;;;;;;;97.80;20.90;;;;;;;;;;5053153;28;20267;-66
2023/02/14 02:05:56;;;;;;;85.88;21.65;;;;;;;;;;5053473;28;20216;-66
2023/02/14 02:08:26;;;;;;;188.73;22.15;;;;;;;;;;5054158;28;20200;-66
2023/02/14 02:10:54;;;;;;;111.88;21.52;;;;;;;;;;5053722;28;20196;-66
2023/02/14 02:13:22;;;;;;;105.20;22.15;;;;;;;;;;5054102;28;20689;-67
2023/02/14 02:15:59;;;;;;;83.07;20.73;;;;;;;;;;5052424;28;20193;-66
2023/02/14 02:18:34;;;;;;;70.38;18.17;;;;;;;;;;5052890;28;20664;-66
2023/02/14 02:21:29;;;;;;;60.05;19.60;;;;;;;;;;5053722;28;20188;-66
2023/02/14 02:24:00;;;;;;;109.30;19.05;;;;;;;;;;5054443;28;20277;-67
2023/02/14 02:26:39;;;;;;;77.68;18.83;;;;;;;;;;5052038;28;20215;-66
2023/02/14 02:29:31;;;;;;;93.95;18.77;;;;;;;;;;5034789;28;20193;-65
2023/02/14 02:32:24;;;;;;;48.17;21.98;;;;;;;;;;5023014;28;20699;-66
2023/02/14 02:35:10;;;;;;;55.10;19.63;;;;;;;;;;5040668;28;20258;-65
2023/02/14 02:37:42;;;;;;;69.72;20.17;;;;;;;;;;5032029;28;20229;-65
2023/02/14 02:40:18;;;;;;;48.80;19.13;;;;;;;;;;5044223;28;20197;-65
2023/02/14 02:42:49;;;;;;;86.40;21.17;;;;;;;;;;5033987;28;20644;-66
2023/02/14 02:45:21;;;;;;;44.85;18.63;;;;;;;;;;5039257;28;20201;-66
2023/02/14 02:47:54;;;;;;;84.75;18.95;;;;;;;;;;5053353;28;20195;-66
2023/02/14 02:53:17;;;;;;;54.08;20.30;;;;;;;;;;5052600;28;20213;-66
2023/02/14 02:58:36;;;;;;;70.15;19.63;;;;;;;;;;5035909;28;20193;-66
2023/02/14 03:01:09;;;;;;;56.72;19.95;;;;;;;;;;5031203;28;20672;-66
2023/02/14 03:06:25;;;;;;;85.78;20.08;;;;;;;;;;5015646;28;20207;-66
2023/02/14 03:08:54;;;;;;;50.70;17.83;;;;;;;;;;5045423;28;20282;-65
2023/02/14 03:11:22;;;;;;;87.03;22.85;;;;;;;;;;5032728;28;20205;-66
2023/02/14 03:14:04;;;;;;;55.22;20.08;;;;;;;;;;5033369;28;20668;-66
2023/02/14 03:16:50;;;;;;;73.75;20.05;;;;;;;;;;5031798;28;20193;-66
2023/02/14 03:22:28;;;;;;;69.28;18.08;;;;;;;;;;5049474;28;20717;-67
2023/02/14 03:24:57;;;;;;;91.13;20.65;;;;;;;;;;5051014;28;20192;-66
2023/02/14 03:27:27;;;;;;;112.45;22.85;;;;;;;;;;5038715;28;20562;-66
2023/02/14 03:29:58;;;;;;;59.25;17.48;;;;;;;;;;5031691;28;20199;-66
2023/02/14 03:32:32;;;;;;;106.40;19.40;;;;;;;;;;5031781;28;20213;-66
2023/02/14 03:35:03;;;;;;;97.40;19.60;;;;;;;;;;5050914;28;20193;-67
2023/02/14 03:37:34;;;;;;;124.20;20.80;;;;;;;;;;5039932;28;20236;-67
2023/02/14 03:40:06;;;;;;;51.63;17.15;;;;;;;;;;5051627;28;20283;-67
2023/02/14 03:42:37;;;;;;;113.90;27.75;;;;;;;;;;5018186;28;20197;-67
2023/02/14 03:45:07;;;;;;;67.15;22.35;;;;;;;;;;5033097;28;20189;-67
2023/02/14 03:47:36;;;;;;;70.47;19.05;;;;;;;;;;5032440;28;20247;-67
2023/02/14 03:50:06;;;;;;;65.70;20.33;;;;;;;;;;5032702;28;20209;-67
2023/02/14 03:52:37;;;;;;;78.20;19.75;;;;;;;;;;5032488;28;20609;-66
2023/02/14 03:55:06;;;;;;;72.30;19.10;;;;;;;;;;5052552;28;20212;-66
2023/02/14 03:57:37;;;;;;;56.55;17.77;;;;;;;;;;5052791;28;20208;-66
2023/02/14 04:00:06;;;;;;;90.25;18.65;;;;;;;;;;5048636;28;20215;-66
2023/02/14 04:02:41;;;;;;;74.32;18.98;;;;;;;;;;5052623;28;20223;-66
2023/02/14 04:05:13;;;;;;;56.35;17.60;;;;;;;;;;5052464;28;20809;-66
2023/02/14 04:07:46;;;;;;;111.80;17.48;;;;;;;;;;5053421;28;20233;-66
2023/02/14 04:10:14;;;;;;;52.03;17.58;;;;;;;;;;5053481;28;20204;-67
2023/02/14 04:12:43;;;;;;;67.75;18.98;;;;;;;;;;5053309;28;20225;-66
2023/02/14 04:15:11;;;;;;;55.22;17.48;;;;;;;;;;5053074;28;20205;-66
2023/02/14 04:20:26;;;;;;;54.63;16.60;;;;;;;;;;5052196;28;20193;-66
2023/02/14 04:22:56;;;;;;;65.97;21.45;;;;;;;;;;5052024;28;20247;-66
2023/02/14 04:25:24;;;;;;;66.35;17.00;;;;;;;;;;5051940;28;20214;-66
2023/02/14 04:27:52;;;;;;;38.00;17.73;;;;;;;;;;5051935;28;20201;-66
2023/02/14 04:30:21;;;;;;;29.52;18.55;;;;;;;;;;5052347;28;20563;-66
2023/02/14 04:32:50;;;;;;;33.42;17.92;;;;;;;;;;5051978;28;20250;-66
2023/02/14 04:35:18;;;;;;;38.85;20.10;;;;;;;;;;5052241;28;20209;-66
2023/02/14 04:37:46;;;;;;;37.17;17.65;;;;;;;;;;5052887;28;20240;-66
2023/02/14 04:40:16;;;;;;;25.88;15.07;;;;;;;;;;5050951;28;20200;-66
2023/02/14 04:42:44;;;;;;;29.77;16.35;;;;;;;;;;5049190;28;20194;-66
2023/02/14 04:45:13;;;;;;;29.58;15.73;;;;;;;;;;5033907;28;20202;-66
2023/02/14 04:47:41;;;;;;;27.00;15.68;;;;;;;;;;5043893;28;20736;-66
2023/02/14 04:50:10;;;;;;;25.13;15.38;;;;;;;;;;5033314;28;20201;-66
2023/02/14 04:52:38;;;;;;;39.13;18.10;;;;;;;;;;5032950;28;20221;-66
2023/02/14 04:55:07;;;;;;;36.85;20.85;;;;;;;;;;5034253;28;20582;-66
2023/02/14 04:57:36;;;;;;;30.80;17.58;;;;;;;;;;5043113;28;20207;-66
2023/02/14 05:00:05;;;;;;;32.97;17.95;;;;;;;;;;5034239;28;20213;-66
2023/02/14 05:02:33;;;;;;;38.85;21.50;;;;;;;;;;5049382;28;20193;-66
2023/02/14 05:05:02;;;;;;;41.50;20.67;;;;;;;;;;5055450;28;20215;-66
2023/02/14 05:07:30;;;;;;;39.40;21.08;;;;;;;;;;5055606;28;20201;-66
2023/02/14 05:09:58;;;;;;;35.35;19.60;;;;;;;;;;5055619;28;20262;-66
2023/02/14 05:12:26;;;;;;;46.45;22.98;;;;;;;;;;5054592;28;20229;-66
2023/02/14 05:14:56;;;;;;;43.90;21.10;;;;;;;;;;5039564;28;20227;-66
2023/02/14 05:17:24;;;;;;;51.08;24.30;;;;;;;;;;5035318;28;20196;-66
2023/02/14 05:19:53;;;;;;;42.20;24.67;;;;;;;;;;5035544;28;20593;-66
2023/02/14 05:22:21;;;;;;;47.67;22.98;;;;;;;;;;5035742;28;20225;-66
2023/02/14 05:24:49;;;;;;;48.70;23.05;;;;;;;;;;5035775;28;20202;-66
2023/02/14 05:27:17;;;;;;;50.92;23.85;;;;;;;;;;5034946;28;20556;-66
2023/02/14 05:29:45;;;;;;;58.30;24.08;;;;;;;;;;5035262;28;20227;-66
2023/02/14 05:32:15;;;;;;;51.45;23.70;;;;;;;;;;5034917;28;20204;-66
2023/02/14 05:34:43;;;;;;;44.75;21.55;;;;;;;;;;5035480;28;20267;-66
2023/02/14 05:37:11;;;;;;;45.10;24.77;;;;;;;;;;5034682;28;20237;-66
2023/02/14 05:39:39;;;;;;;50.30;25.67;;;;;;;;;;5035641;28;20656;-66
2023/02/14 05:42:07;;;;;;;49.05;25.77;;;;;;;;;;5034272;28;20209;-67
2023/02/14 05:44:36;;;;;;;49.78;25.90;;;;;;;;;;5035043;28;20202;-66
2023/02/14 05:47:04;;;;;;;49.42;26.17;;;;;;;;;;5035310;28;20208;-66
2023/02/14 05:49:35;;;;;;;50.70;23.50;;;;;;;;;;5035607;28;20206;-66
2023/02/14 05:52:03;;;;;;;54.55;25.38;;;;;;;;;;5038789;28;20554;-66
2023/02/14 05:54:31;;;;;;;46.72;25.92;;;;;;;;;;5035756;28;20696;-66
2023/02/14 05:56:59;;;;;;;52.88;25.52;;;;;;;;;;5050139;28;20197;-66
2023/02/14 05:59:28;;;;;;;54.50;25.60;;;;;;;;;;5053782;28;20207;-66
2023/02/14 06:01:56;;;;;;;49.22;23.80;;;;;;;;;;5039063;28;20196;-66
2023/02/14 06:04:24;;;;;;;50.63;25.02;;;;;;;;;;5046299;28;20678;-66
2023/02/14 06:06:53;;;;;;;49.42;23.98;;;;;;;;;;5051627;28;20208;-66
2023/02/14 06:09:22;;;;;;;56.95;24.95;;;;;;;;;;5042588;28;20203;-66
2023/02/14 06:11:50;;;;;;;56.33;26.05;;;;;;;;;;5041574;28;20203;-66
2023/02/14 06:14:18;;;;;;;52.22;27.17;;;;;;;;;;5054233;28;20223;-66
2023/02/14 06:16:46;;;;;;;46.95;24.75;;;;;;;;;;5054569;28;20204;-66
2023/02/14 06:19:14;;;;;;;52.60;25.50;;;;;;;;;;5048880;28;20207;-66
2023/02/14 06:21:43;;;;;;;47.25;24.65;;;;;;;;;;5044850;28;20581;-66
2023/02/14 06:24:12;;;;;;;55.17;27.63;;;;;;;;;;5037614;28;20536;-66
2023/02/14 06:26:40;;;;;;;50.42;24.55;;;;;;;;;;5036118;28;20660;-66
2023/02/14 06:29:08;;;;;;;46.55;25.60;;;;;;;;;;5040019;28;20211;-66
2023/02/14 06:31:37;;;;;;;50.15;24.88;;;;;;;;;;5039353;28;20211;-66
2023/02/14 06:34:05;;;;;;;51.88;24.88;;;;;;;;;;5035445;28;20213;-66
2023/02/14 06:36:33;;;;;;;53.70;25.55;;;;;;;;;;5043026;28;20221;-66
2023/02/14 06:39:01;;;;;;;46.45;24.20;;;;;;;;;;5044291;28;20691;-66
2023/02/14 06:41:31;;;;;;;62.88;27.60;;;;;;;;;;5050533;28;20196;-66
2023/02/14 06:43:59;;;;;;;51.63;24.90;;;;;;;;;;5041036;28;20199;-66
2023/02/14 06:46:27;;;;;;;59.55;29.92;;;;;;;;;;5046339;28;21330;-66
2023/02/14 06:48:55;;;;;;;51.38;26.67;;;;;;;;;;5047342;28;20208;-64
2023/02/14 06:51:24;;;;;;;48.72;27.10;;;;;;;;;;5036405;28;20201;-66
2023/02/14 06:53:52;;;;;;;46.40;24.02;;;;;;;;;;5031509;28;20571;-66
2023/02/14 06:56:20;;;;;;;56.42;25.90;;;;;;;;;;5031554;28;20209;-66
2023/02/14 06:58:49;;;;;;;48.40;24.42;;;;;;;;;;5032912;28;20577;-64
2023/02/14 07:01:18;;;;;;;53.45;24.83;;;;;;;;;;5031928;28;20216;-66
2023/02/14 07:03:46;;;;;;;47.97;25.75;;;;;;;;;;5032570;28;20660;-66
2023/02/14 07:06:14;;;;;;;48.78;25.00;;;;;;;;;;5032803;28;20206;-66
2023/02/14 07:08:42;;;;;;;51.72;26.85;;;;;;;;;;5033180;28;20205;-66
2023/02/14 07:11:10;;;;;;;49.03;24.98;;;;;;;;;;5035439;28;20569;-65
2023/02/14 07:13:38;;;;;;;40.83;22.80;;;;;;;;;;5053266;28;20629;-66
2023/02/14 07:16:08;;;;;;;48.10;23.80;;;;;;;;;;5051104;28;20520;-67
2023/02/14 07:18:36;;;;;;;51.58;25.23;;;;;;;;;;5035962;28;20215;-65
2023/02/14 07:21:05;;;;;;;56.63;27.38;;;;;;;;;;5047784;28;20570;-66
2023/02/14 07:23:33;;;;;;;57.30;29.80;;;;;;;;;;5046029;28;20777;-69
2023/02/14 07:26:01;;;;;;;49.33;25.23;;;;;;;;;;5043272;28;20234;-69
2023/02/14 07:28:30;;;;;;;59.47;30.10;;;;;;;;;;5041553;28;20777;-68
2023/02/14 07:31:00;;;;;;;60.03;28.63;;;;;;;;;;5048061;28;20680;-66
2023/02/14 07:33:29;;;;;;;57.25;27.52;;;;;;;;;;5050066;28;20209;-68
2023/02/14 07:35:58;;;;;;;60.17;27.38;;;;;;;;;;5051186;28;20246;-68
2023/02/14 07:38:29;;;;;;;59.05;25.85;;;;;;;;;;5051775;28;20189;-68
2023/02/14 07:40:57;;;;;;;50.72;25.30;;;;;;;;;;5034553;28;20204;-67
2023/02/14 07:43:25;;;;;;;51.30;25.00;;;;;;;;;;5053174;28;20196;-68
2023/02/14 07:45:54;;;;;;;56.92;26.52;;;;;;;;;;5045860;28;20201;-69
2023/02/14 07:48:24;;;;;;;55.75;25.35;;;;;;;;;;5039432;28;20205;-69
2023/02/14 07:50:58;;;;;;;54.15;27.50;;;;;;;;;;5045703;28;20197;-70
2023/02/14 07:53:26;;;;;;;52.58;27.88;;;;;;;;;;5051773;28;20223;-69
2023/02/14 07:55:54;;;;;;;54.97;26.08;;;;;;;;;;5036547;28;20616;-69
2023/02/14 07:58:23;;;;;;;50.53;27.15;;;;;;;;;;5033623;28;20205;-68
2023/02/14 08:00:51;;;;;;;50.05;24.35;;;;;;;;;;5043665;28;20201;-67
2023/02/14 08:03:19;;;;;;;48.20;25.67;;;;;;;;;;5041086;28;20612;-66
2023/02/14 08:05:55;;;;;;;43.50;23.20;;;;;;;;;;5040411;28;20197;-66
2023/02/14 08:08:25;;;;;;;49.40;26.83;;;;;;;;;;5042599;28;20188;-67
2023/02/14 08:10:54;;;;;;;50.72;25.45;;;;;;;;;;5044157;28;20196;-67
2023/02/14 08:13:22;;;;;;;53.03;24.63;;;;;;;;;;5041878;28;20197;-67
2023/02/14 08:16:06;;;;;;;48.50;24.02;;;;;;;;;;5036831;28;20596;-67
2023/02/14 08:18:35;;;;;;;40.53;22.88;;;;;;;;;;5040913;28;20215;-67
2023/02/14 08:21:03;;;;;;;53.33;26.60;;;;;;;;;;5044799;28;20521;-66
2023/02/14 08:23:33;;;;;;;54.30;27.27;;;;;;;;;;5038971;28;20265;-65
2023/02/14 08:26:01;;;;;;;46.60;25.15;;;;;;;;;;5047508;28;20204;-67
2023/02/14 08:28:31;;;;;;;52.63;24.95;;;;;;;;;;5043475;28;20213;-65
2023/02/14 08:30:59;;;;;;;43.90;24.75;;;;;;;;;;5035157;28;20314;-66
2023/02/14 08:33:27;;;;;;;41.35;22.55;;;;;;;;;;5033445;28;20197;-66
2023/02/14 08:35:55;;;;;;;47.38;22.67;;;;;;;;;;5039279;28;20587;-65
2023/02/14 08:38:23;;;;;;;43.30;21.77;;;;;;;;;;5040189;28;20184;-64
2023/02/14 08:40:52;;;;;;;51.00;24.65;;;;;;;;;;5056821;28;20196;-65
2023/02/14 08:43:20;;;;;;;53.90;25.13;;;;;;;;;;5046902;28;20197;-66
2023/02/14 08:45:49;;;;;;;42.15;24.60;;;;;;;;;;5042922;28;20193;-66
2023/02/14 08:48:17;;;;;;;58.53;25.15;;;;;;;;;;5054989;28;20532;-66
2023/02/14 08:50:45;;;;;;;45.10;25.13;;;;;;;;;;5037849;28;20212;-66
2023/02/14 08:53:13;;;;;;;50.42;24.50;;;;;;;;;;5053385;28;20592;-66
2023/02/14 08:55:41;;;;;;;47.90;23.95;;;;;;;;;;5055144;28;20583;-66
2023/02/14 08:58:11;;;;;;;49.85;26.83;;;;;;;;;;5048328;28;20545;-66
2023/02/14 09:00:39;;;;;;;45.45;25.15;;;;;;;;;;5048539;28;20210;-65
2023/02/14 09:03:09;;;;;;;55.22;27.23;;;;;;;;;;5036014;28;20202;-66
2023/02/14 09:05:37;;;;;;;57.28;29.98;;;;;;;;;;5034820;28;20572;-66
2023/02/14 09:08:06;;;;;;;45.60;26.10;;;;;;;;;;5036190;28;20671;-66
2023/02/14 09:10:34;;;;;;;47.35;25.13;;;;;;;;;;5036505;28;20205;-67
2023/02/14 09:13:02;;;;;;;48.75;26.35;;;;;;;;;;5050303;28;20289;-67
2023/02/14 09:15:32;;;;;;;50.13;29.25;;;;;;;;;;5054864;28;20220;-67
2023/02/14 09:18:00;;;;;;;53.13;26.70;;;;;;;;;;5045076;28;20205;-67
2023/02/14 09:20:28;;;;;;;41.03;22.55;;;;;;;;;;5034503;28;20564;-68
2023/02/14 09:22:56;;;;;;;45.53;24.83;;;;;;;;;;5034632;28;20589;-67
2023/02/14 09:25:25;;;;;;;45.17;23.35;;;;;;;;;;5034696;28;20581;-67
2023/02/14 09:27:53;;;;;;;51.13;25.00;;;;;;;;;;5034782;28;20201;-67
2023/02/14 09:30:21;;;;;;;44.10;24.50;;;;;;;;;;5045004;28;20211;-66
2023/02/14 09:32:51;;;;;;;47.00;24.52;;;;;;;;;;5051862;28;20205;-66
2023/02/14 09:35:19;;;;;;;47.28;26.55;;;;;;;;;;5045798;28;20217;-67
2023/02/14 09:37:47;;;;;;;50.33;24.90;;;;;;;;;;5035930;28;20229;-66
2023/02/14 09:40:17;;;;;;;43.28;23.77;;;;;;;;;;5040532;28;20201;-66
2023/02/14 09:43:03;;;;;;;48.08;25.90;;;;;;;;;;5035094;28;20205;-66
2023/02/14 09:45:32;;;;;;;46.67;24.35;;;;;;;;;;5041244;28;20658;-67
2023/02/14 09:48:04;;;;;;;49.72;24.95;;;;;;;;;;5052662;28;20197;-67
2023/02/14 09:50:34;;;;;;;44.90;23.75;;;;;;;;;;5046358;28;20531;-67
2023/02/14 09:53:06;;;;;;;48.17;23.42;;;;;;;;;;5048571;28;20195;-66
2023/02/14 09:55:40;;;;;;;44.88;22.95;;;;;;;;;;5049711;28;20208;-67
2023/02/14 09:58:10;;;;;;;42.72;23.77;;;;;;;;;;5047032;28;20239;-68
2023/02/14 10:00:44;;;;;;;44.00;24.92;;;;;;;;;;5034075;28;20200;-67
2023/02/14 10:03:30;;;;;;;48.15;24.40;;;;;;;;;;5033470;28;20221;-68
2023/02/14 10:06:02;;;;;;;45.60;24.25;;;;;;;;;;5047634;28;20180;-67
2023/02/14 10:08:36;;;;;;;42.33;23.92;;;;;;;;;;5048880;28;20196;-66
2023/02/14 10:11:06;;;;;;;45.17;22.67;;;;;;;;;;5034242;28;20196;-66
2023/02/14 10:13:38;;;;;;;49.22;24.13;;;;;;;;;;5051776;28;20197;-66
2023/02/14 10:16:11;;;;;;;51.90;25.95;;;;;;;;;;5052989;28;20322;-66
2023/02/14 10:18:41;;;;;;;44.25;23.85;;;;;;;;;;5038740;28;20224;-66
2023/02/14 10:21:18;;;;;;;45.90;25.40;;;;;;;;;;5050705;28;20207;-66
2023/02/14 10:29:49;;;;;;;44.85;24.15;;;;;;;;;;5042538;28;20850;-62
2023/02/14 10:32:32;;;;;;;42.65;23.75;;;;;;;;;;5052144;28;20227;-64
2023/02/14 10:35:18;;;;;;;41.30;22.52;;;;;;;;;;5049794;28;20227;-65
2023/02/14 10:37:58;;;;;;;44.80;24.58;;;;;;;;;;5049935;28;20311;-64
2023/02/14 10:40:51;;;;;;;45.63;25.58;;;;;;;;;;5038526;28;20220;-63
2023/02/14 10:43:33;;;;;;;44.53;26.02;;;;;;;;;;4987913;28;20196;-65
2023/02/14 10:46:05;;;;;;;44.15;24.10;;;;;;;;;;5034984;28;20189;-65
2023/02/14 10:48:37;;;;;;;44.28;25.02;;;;;;;;;;5048628;28;20558;-67
2023/02/14 10:51:11;;;;;;;50.47;26.38;;;;;;;;;;5037836;28;20678;-64
2023/02/14 10:53:46;;;;;;;45.05;24.42;;;;;;;;;;5037305;28;20255;-65
2023/02/14 10:56:50;;;;;;;41.78;25.95;;;;;;;;;;5046755;28;20205;-65
2023/02/14 10:59:22;;;;;;;51.20;24.85;;;;;;;;;;5046717;28;20196;-67
2023/02/14 11:01:51;;;;;;;44.88;25.38;;;;;;;;;;5052189;28;20605;-66
2023/02/14 11:04:20;;;;;;;44.30;24.92;;;;;;;;;;5036095;28;20581;-67
2023/02/14 11:06:58;;;;;;;52.50;30.95;;;;;;;;;;5046589;28;20252;-66
2023/02/14 11:09:35;;;;;;;43.83;22.45;;;;;;;;;;5038127;28;20574;-67
2023/02/14 11:12:07;;;;;;;39.83;22.98;;;;;;;;;;5045961;28;20590;-67
2023/02/14 11:14:38;;;;;;;47.00;24.95;;;;;;;;;;5049194;28;20208;-66
2023/02/14 11:17:26;;;;;;;50.53;24.60;;;;;;;;;;5047385;28;20208;-66
2023/02/14 11:19:57;;;;;;;46.60;23.40;;;;;;;;;;5044836;28;20189;-65
2023/02/14 11:22:29;;;;;;;45.85;24.08;;;;;;;;;;5033940;28;20224;-65
2023/02/14 11:25:05;;;;;;;52.08;23.63;;;;;;;;;;5044664;28;20189;-65
2023/02/14 11:27:33;;;;;;;40.85;23.25;;;;;;;;;;5037497;28;20633;-65
2023/02/14 11:30:01;;;;;;;51.28;24.35;;;;;;;;;;5033026;28;20548;-65
2023/02/14 11:32:30;;;;;;;46.17;24.67;;;;;;;;;;5041391;28;20616;-65
2023/02/14 11:35:00;;;;;;;41.30;22.98;;;;;;;;;;5045253;28;20192;-65
2023/02/14 11:37:45;;;;;;;42.17;23.75;;;;;;;;;;5055614;28;20237;-65
2023/02/14 11:40:39;;;;;;;43.20;25.35;;;;;;;;;;5054149;28;20207;-65
2023/02/14 11:46:37;;;;;;;41.40;24.35;;;;;;;;;;5042476;28;20254;-65
2023/02/14 11:49:23;;;;;;;42.67;24.42;;;;;;;;;;5052193;28;21068;-65
2023/02/14 11:51:51;;;;;;;45.03;25.38;;;;;;;;;;5044970;28;20196;-65
2023/02/14 11:54:27;;;;;;;46.70;25.73;;;;;;;;;;5044141;28;20261;-66
2023/02/14 11:57:02;;;;;;;42.47;24.55;;;;;;;;;;5046846;28;20208;-67
2023/02/14 11:59:32;;;;;;;50.03;24.42;;;;;;;;;;5036683;28;20641;-65
2023/02/14 12:02:05;;;;;;;46.72;26.38;;;;;;;;;;5046161;28;20716;-66
2023/02/14 12:05:04;;;;;;;48.50;25.27;;;;;;;;;;5045925;28;20704;-66
2023/02/14 12:07:46;;;;;;;52.97;27.50;;;;;;;;;;5044975;28;20279;-67
2023/02/14 12:10:23;;;;;;;53.22;25.92;;;;;;;;;;5041045;28;20208;-65
2023/02/14 12:12:57;;;;;;;52.25;26.23;;;;;;;;;;5044350;28;20199;-65
2023/02/14 12:15:35;;;;;;;47.20;29.00;;;;;;;;;;5044706;28;20199;-65
2023/02/14 12:21:54;;;;;;;45.70;24.90;;;;;;;;;;5038375;28;20211;-65
2023/02/14 12:24:30;;;;;;;48.30;25.85;;;;;;;;;;5039873;28;20751;-65
2023/02/14 12:27:03;;;;;;;49.20;26.60;;;;;;;;;;5041471;28;20189;-65
2023/02/14 12:29:40;;;;;;;47.05;24.50;;;;;;;;;;5045516;28;20297;-65
2023/02/14 12:32:15;;;;;;;46.78;26.85;;;;;;;;;;5041009;28;20189;-65
2023/02/14 12:34:43;;;;;;;53.60;27.60;;;;;;;;;;5038177;28;20559;-65
2023/02/14 12:37:18;;;;;;;51.33;26.92;;;;;;;;;;5042904;28;20469;-65
2023/02/14 12:40:09;;;;;;;51.83;28.15;;;;;;;;;;5047407;28;20185;-65
2023/02/14 12:42:56;;;;;;;56.03;25.98;;;;;;;;;;5040188;28;20246;-65
2023/02/14 12:45:42;;;;;;;50.40;25.90;;;;;;;;;;5040745;28;20209;-65
2023/02/14 12:48:14;;;;;;;48.63;27.67;;;;;;;;;;5040785;28;20178;-65
2023/02/14 12:50:46;;;;;;;52.58;29.58;;;;;;;;;;5049714;28;20196;-66
2023/02/14 12:53:32;;;;;;;57.70;34.05;;;;;;;;;;5054222;28;20193;-65
2023/02/14 12:56:05;;;;;;;56.28;31.90;;;;;;;;;;5052100;28;20205;-66
2023/02/14 12:58:41;;;;;;;54.55;28.50;;;;;;;;;;5061797;28;20216;-66
2023/02/14 13:01:20;;;;;;;60.03;32.80;;;;;;;;;;5052436;28;20193;-66
2023/02/14 13:04:02;;;;;;;53.97;30.55;;;;;;;;;;5056522;28;20229;-65
2023/02/14 13:06:31;;;;;;;52.45;28.73;;;;;;;;;;5049823;28;20222;-66
2023/02/14 13:09:08;;;;;;;52.08;28.58;;;;;;;;;;5059002;28;20196;-65
2023/02/14 13:11:40;;;;;;;53.60;29.55;;;;;;;;;;5046513;28;20201;-65
2023/02/14 13:14:19;;;;;;;54.50;28.30;;;;;;;;;;5051966;28;20196;-66
2023/02/14 13:17:26;;;;;;;47.53;27.80;;;;;;;;;;5051429;28;20292;-67
2023/02/14 13:20:00;;;;;;;49.90;27.95;;;;;;;;;;5050382;28;20243;-66
2023/02/14 13:22:31;;;;;;;49.60;27.30;;;;;;;;;;5061935;28;20217;-66
2023/02/14 13:25:02;;;;;;;47.03;27.02;;;;;;;;;;5060680;28;20263;-66
2023/02/14 13:27:37;;;;;;;56.65;30.15;;;;;;;;;;5058259;28;20277;-66
2023/02/14 13:31:11;;;;;;;52.35;29.35;;;;;;;;;;5059210;28;20300;-66
2023/02/14 13:33:42;;;;;;;49.40;27.98;;;;;;;;;;5063864;28;20193;-66
2023/02/14 13:36:12;;;;;;;54.78;30.63;;;;;;;;;;5048683;28;20229;-66
2023/02/14 13:38:44;;;;;;;57.50;33.10;;;;;;;;;;5050680;28;20279;-66
2023/02/14 13:41:12;;;;;;;54.00;30.75;;;;;;;;;;5079087;28;20208;-66
2023/02/14 13:43:51;;;;;;;53.15;29.88;;;;;;;;;;5086520;28;20255;-66
2023/02/14 13:46:20;;;;;;;53.22;28.50;;;;;;;;;;5084666;28;20274;-66
2023/02/14 13:49:00;;;;;;;46.80;29.05;;;;;;;;;;5065474;28;20291;-66
2023/02/14 13:51:45;;;;;;;51.33;29.27;;;;;;;;;;5067269;28;20288;-65
2023/02/14 13:54:29;;;;;;;48.53;28.58;;;;;;;;;;5069321;28;20247;-65
2023/02/14 13:56:58;;;;;;;51.55;28.55;;;;;;;;;;5073813;28;20300;-66
2023/02/14 13:59:28;;;;;;;49.42;27.35;;;;;;;;;;5060916;28;20275;-66
2023/02/14 14:01:57;;;;;;;49.17;28.25;;;;;;;;;;5058690;28;20196;-66
2023/02/14 14:04:37;;;;;;;54.50;29.05;;;;;;;;;;5055723;28;20220;-64
2023/02/14 14:07:20;;;;;;;46.97;27.58;;;;;;;;;;5062415;28;20210;-70
2023/02/14 14:10:02;;;;;;;52.38;30.23;;;;;;;;;;5075020;28;20196;-66
2023/02/14 14:12:38;;;;;;;49.38;30.02;;;;;;;;;;5072836;28;20260;-71
2023/02/14 14:15:17;;;;;;;54.53;31.55;;;;;;;;;;5059991;28;20195;-67
2023/02/14 14:17:48;;;;;;;52.25;28.10;;;;;;;;;;5073246;28;20291;-67
2023/02/14 14:20:41;;;;;;;53.03;28.48;;;;;;;;;;5062257;28;20659;-66
2023/02/14 14:23:40;;;;;;;60.20;32.28;;;;;;;;;;5050243;28;20220;-66
2023/02/14 14:26:26;;;;;;;50.53;29.67;;;;;;;;;;4997498;28;20274;-67
2023/02/14 14:28:55;;;;;;;63.38;32.72;;;;;;;;;;5034050;28;20296;-66
2023/02/14 14:31:23;;;;;;;53.80;31.70;;;;;;;;;;5040019;28;20314;-67
2023/02/14 14:33:58;;;;;;;51.17;28.67;;;;;;;;;;5048124;28;20276;-67
2023/02/14 14:36:28;;;;;;;59.17;31.67;;;;;;;;;;5060547;28;20362;-67
2023/02/14 14:38:56;;;;;;;63.10;32.08;;;;;;;;;;5046311;28;20193;-66
2023/02/14 14:41:28;;;;;;;51.47;31.50;;;;;;;;;;5054733;28;20720;-66
2023/02/14 14:43:56;;;;;;;66.78;32.83;;;;;;;;;;5040298;28;20197;-66
2023/02/14 14:46:25;;;;;;;59.28;32.92;;;;;;;;;;5047591;28;20669;-68
2023/02/14 14:48:55;;;;;;;57.50;32.42;;;;;;;;;;5043430;28;20612;-65
2023/02/14 14:51:25;;;;;;;75.55;36.75;;;;;;;;;;5042597;28;20690;-66
2023/02/14 14:54:12;;;;;;;44.33;28.30;;;;;;;;;;5046804;28;20256;-65
2023/02/14 14:56:48;;;;;;;43.55;26.92;;;;;;;;;;5049612;28;20191;-66
2023/02/14 14:59:18;;;;;;;50.08;28.33;;;;;;;;;;5048881;28;20201;-66
2023/02/14 15:01:46;;;;;;;64.25;35.55;;;;;;;;;;5047608;28;20208;-65
2023/02/14 15:04:17;;;;;;;44.63;26.80;;;;;;;;;;5041243;28;20205;-65
2023/02/14 15:06:45;;;;;;;46.70;28.02;;;;;;;;;;5041409;28;20204;-66
2023/02/14 15:09:17;;;;;;;47.25;28.00;;;;;;;;;;5043274;28;20192;-66
2023/02/14 15:14:34;;;;;;;45.58;29.05;;;;;;;;;;5043502;28;20193;-67
2023/02/14 15:17:04;;;;;;;53.38;33.28;;;;;;;;;;5048263;28;20222;-65